sensor_id;sensor_type;location;lat;lon;timestamp;temperature;humidity
76936;DHT22;65881;52.438;16.744;2024-03-17T00:00:37;3.40;99.90
76936;DHT22;65881;52.438;16.744;2024-03-17T00:03:05;3.30;99.90
76936;DHT22;65881;52.438;16.744;2024-03-17T00:05:35;3.30;99.90
76936;DHT22;65881;52.438;16.744;2024-03-17T00:08:04;3.30;99.90
76936;DHT22;65881;52.438;16.744;2024-03-17T00:10:34;3.30;99.90
76936;DHT22;65881;52.438;16.744;2024-03-17T00:12:59;3.40;99.90
76936;DHT22;65881;52.438;16.744;2024-03-17T00:15:25;3.30;99.90
76936;DHT22;65881;52.438;16.744;2024-03-17T00:17:52;3.30;99.90
76936;DHT22;65881;52.438;16.744;2024-03-17T00:20:17;3.30;99.90
76936;DHT22;65881;52.438;16.744;2024-03-17T00:22:47;3.30;99.90
76936;DHT22;65881;52.438;16.744;2024-03-17T00:25:13;3.30;99.90
76936;DHT22;65881;52.438;16.744;2024-03-17T00:27:39;3.30;99.90
76936;DHT22;65881;52.438;16.744;2024-03-17T00:30:08;3.30;99.90
76936;DHT22;65881;52.438;16.744;2024-03-17T00:32:41;3.30;99.90
76936;DHT22;65881;52.438;16.744;2024-03-17T00:35:07;3.30;99.90
76936;DHT22;65881;52.438;16.744;2024-03-17T00:37:34;3.30;99.90
76936;DHT22;65881;52.438;16.744;2024-03-17T00:40:03;3.30;99.90
76936;DHT22;65881;52.438;16.744;2024-03-17T00:42:29;3.50;99.90
76936;DHT22;65881;52.438;16.744;2024-03-17T00:44:59;3.50;99.90
76936;DHT22;65881;52.438;16.744;2024-03-17T00:47:43;3.50;99.90
76936;DHT22;65881;52.438;16.744;2024-03-17T00:50:09;3.50;99.90
76936;DHT22;65881;52.438;16.744;2024-03-17T00:52:37;3.50;99.90
76936;DHT22;65881;52.438;16.744;2024-03-17T00:55:04;3.50;99.90
76936;DHT22;65881;52.438;16.744;2024-03-17T00:57:29;3.50;99.90
76936;DHT22;65881;52.438;16.744;2024-03-17T00:59:55;3.50;99.90
76936;DHT22;65881;52.438;16.744;2024-03-17T01:02:21;3.50;99.90
76936;DHT22;65881;52.438;16.744;2024-03-17T01:04:47;3.50;99.90
76936;DHT22;65881;52.438;16.744;2024-03-17T01:07:13;3.60;99.90
76936;DHT22;65881;52.438;16.744;2024-03-17T01:09:38;3.60;99.90
76936;DHT22;65881;52.438;16.744;2024-03-17T01:12:04;3.60;99.90
76936;DHT22;65881;52.438;16.744;2024-03-17T01:14:32;3.70;99.90
76936;DHT22;65881;52.438;16.744;2024-03-17T01:16:59;3.70;99.90
76936;DHT22;65881;52.438;16.744;2024-03-17T01:19:26;3.70;99.90
76936;DHT22;65881;52.438;16.744;2024-03-17T01:21:52;3.70;99.90
76936;DHT22;65881;52.438;16.744;2024-03-17T01:24:18;3.80;99.90
76936;DHT22;65881;52.438;16.744;2024-03-17T01:26:44;3.90;99.90
76936;DHT22;65881;52.438;16.744;2024-03-17T01:29:10;3.90;99.90
76936;DHT22;65881;52.438;16.744;2024-03-17T01:31:35;3.90;99.90
76936;DHT22;65881;52.438;16.744;2024-03-17T01:34:01;3.80;99.90
76936;DHT22;65881;52.438;16.744;2024-03-17T01:36:26;3.70;99.90
76936;DHT22;65881;52.438;16.744;2024-03-17T01:38:52;3.70;99.90
76936;DHT22;65881;52.438;16.744;2024-03-17T01:41:17;3.70;99.90
76936;DHT22;65881;52.438;16.744;2024-03-17T01:43:46;3.60;99.90
76936;DHT22;65881;52.438;16.744;2024-03-17T01:46:13;3.60;99.90
76936;DHT22;65881;52.438;16.744;2024-03-17T01:48:40;3.50;99.90
76936;DHT22;65881;52.438;16.744;2024-03-17T01:51:06;3.50;99.90
76936;DHT22;65881;52.438;16.744;2024-03-17T01:53:33;3.50;99.90
76936;DHT22;65881;52.438;16.744;2024-03-17T01:55:59;3.50;99.90
76936;DHT22;65881;52.438;16.744;2024-03-17T01:58:25;3.50;99.90
76936;DHT22;65881;52.438;16.744;2024-03-17T02:00:52;3.50;99.90
76936;DHT22;65881;52.438;16.744;2024-03-17T02:03:18;3.50;99.90
76936;DHT22;65881;52.438;16.744;2024-03-17T02:05:44;3.50;99.90
76936;DHT22;65881;52.438;16.744;2024-03-17T02:08:10;3.50;99.90
76936;DHT22;65881;52.438;16.744;2024-03-17T02:10:37;3.50;99.90
76936;DHT22;65881;52.438;16.744;2024-03-17T02:13:02;3.50;99.90
76936;DHT22;65881;52.438;16.744;2024-03-17T02:15:31;3.50;99.90
76936;DHT22;65881;52.438;16.744;2024-03-17T02:17:59;3.60;99.90
76936;DHT22;65881;52.438;16.744;2024-03-17T02:20:25;3.60;99.90
76936;DHT22;65881;52.438;16.744;2024-03-17T02:23:10;3.60;99.90
76936;DHT22;65881;52.438;16.744;2024-03-17T02:25:37;3.50;99.90
76936;DHT22;65881;52.438;16.744;2024-03-17T02:28:06;3.50;99.90
76936;DHT22;65881;52.438;16.744;2024-03-17T02:30:32;3.50;99.90
76936;DHT22;65881;52.438;16.744;2024-03-17T02:32:57;3.50;99.90
76936;DHT22;65881;52.438;16.744;2024-03-17T02:35:26;3.50;99.90
76936;DHT22;65881;52.438;16.744;2024-03-17T02:37:53;3.50;99.90
76936;DHT22;65881;52.438;16.744;2024-03-17T02:40:19;3.50;99.90
76936;DHT22;65881;52.438;16.744;2024-03-17T02:42:46;3.50;99.90
76936;DHT22;65881;52.438;16.744;2024-03-17T02:45:11;3.50;99.90
76936;DHT22;65881;52.438;16.744;2024-03-17T02:47:41;3.40;99.90
76936;DHT22;65881;52.438;16.744;2024-03-17T02:50:08;3.40;99.90
76936;DHT22;65881;52.438;16.744;2024-03-17T02:52:36;3.40;99.90
76936;DHT22;65881;52.438;16.744;2024-03-17T02:55:03;3.40;99.90
76936;DHT22;65881;52.438;16.744;2024-03-17T02:57:29;3.40;99.90
76936;DHT22;65881;52.438;16.744;2024-03-17T02:59:56;3.40;99.90
76936;DHT22;65881;52.438;16.744;2024-03-17T03:02:22;3.40;99.90
76936;DHT22;65881;52.438;16.744;2024-03-17T03:04:48;3.50;99.90
76936;DHT22;65881;52.438;16.744;2024-03-17T03:07:13;3.50;99.90
76936;DHT22;65881;52.438;16.744;2024-03-17T03:09:39;3.40;99.90
76936;DHT22;65881;52.438;16.744;2024-03-17T03:12:05;3.50;99.90
76936;DHT22;65881;52.438;16.744;2024-03-17T03:14:35;3.50;99.90
76936;DHT22;65881;52.438;16.744;2024-03-17T03:17:00;3.40;99.90
76936;DHT22;65881;52.438;16.744;2024-03-17T03:19:29;3.40;99.90
76936;DHT22;65881;52.438;16.744;2024-03-17T03:21:55;3.40;99.90
76936;DHT22;65881;52.438;16.744;2024-03-17T03:24:21;3.40;99.90
76936;DHT22;65881;52.438;16.744;2024-03-17T03:26:47;3.50;99.90
76936;DHT22;65881;52.438;16.744;2024-03-17T03:29:14;3.50;99.90
76936;DHT22;65881;52.438;16.744;2024-03-17T03:31:40;3.50;99.90
76936;DHT22;65881;52.438;16.744;2024-03-17T03:34:06;3.50;99.90
76936;DHT22;65881;52.438;16.744;2024-03-17T03:36:34;3.50;99.90
76936;DHT22;65881;52.438;16.744;2024-03-17T03:39:01;3.50;99.90
76936;DHT22;65881;52.438;16.744;2024-03-17T03:41:26;3.50;99.90
76936;DHT22;65881;52.438;16.744;2024-03-17T03:43:52;3.50;99.90
76936;DHT22;65881;52.438;16.744;2024-03-17T03:46:18;3.50;99.90
76936;DHT22;65881;52.438;16.744;2024-03-17T03:48:43;3.50;99.90
76936;DHT22;65881;52.438;16.744;2024-03-17T03:51:10;3.50;99.90
76936;DHT22;65881;52.438;16.744;2024-03-17T03:53:36;3.50;99.90
76936;DHT22;65881;52.438;16.744;2024-03-17T03:56:03;3.50;99.90
76936;DHT22;65881;52.438;16.744;2024-03-17T03:58:35;3.50;99.90
76936;DHT22;65881;52.438;16.744;2024-03-17T04:01:07;3.50;99.90
76936;DHT22;65881;52.438;16.744;2024-03-17T04:03:33;3.50;99.90
76936;DHT22;65881;52.438;16.744;2024-03-17T04:06:03;3.50;99.90
76936;DHT22;65881;52.438;16.744;2024-03-17T04:08:34;3.50;99.90
76936;DHT22;65881;52.438;16.744;2024-03-17T04:11:01;3.50;99.90
76936;DHT22;65881;52.438;16.744;2024-03-17T04:13:27;3.50;99.90
76936;DHT22;65881;52.438;16.744;2024-03-17T04:15:53;3.50;99.90
76936;DHT22;65881;52.438;16.744;2024-03-17T04:18:25;3.50;99.90
76936;DHT22;65881;52.438;16.744;2024-03-17T04:20:52;3.50;99.90
76936;DHT22;65881;52.438;16.744;2024-03-17T04:23:20;3.50;99.90
76936;DHT22;65881;52.438;16.744;2024-03-17T04:25:50;3.50;99.90
76936;DHT22;65881;52.438;16.744;2024-03-17T04:28:16;3.50;99.90
76936;DHT22;65881;52.438;16.744;2024-03-17T04:30:42;3.50;99.90
76936;DHT22;65881;52.438;16.744;2024-03-17T04:33:14;3.50;99.90
76936;DHT22;65881;52.438;16.744;2024-03-17T04:35:40;3.50;99.90
76936;DHT22;65881;52.438;16.744;2024-03-17T04:38:07;3.50;99.90
76936;DHT22;65881;52.438;16.744;2024-03-17T04:40:33;3.50;99.90
76936;DHT22;65881;52.438;16.744;2024-03-17T04:42:59;3.50;99.90
76936;DHT22;65881;52.438;16.744;2024-03-17T04:45:24;3.50;99.90
76936;DHT22;65881;52.438;16.744;2024-03-17T04:47:50;3.50;99.90
76936;DHT22;65881;52.438;16.744;2024-03-17T04:50:16;3.50;99.90
76936;DHT22;65881;52.438;16.744;2024-03-17T04:52:41;3.40;99.90
76936;DHT22;65881;52.438;16.744;2024-03-17T04:55:07;3.30;99.90
76936;DHT22;65881;52.438;16.744;2024-03-17T04:57:33;3.30;99.90
76936;DHT22;65881;52.438;16.744;2024-03-17T04:59:58;3.30;99.90
76936;DHT22;65881;52.438;16.744;2024-03-17T05:02:24;3.30;99.90
76936;DHT22;65881;52.438;16.744;2024-03-17T05:04:50;3.30;99.90
76936;DHT22;65881;52.438;16.744;2024-03-17T05:07:16;3.30;99.90
76936;DHT22;65881;52.438;16.744;2024-03-17T05:09:42;3.30;99.90
76936;DHT22;65881;52.438;16.744;2024-03-17T05:12:09;3.30;99.90
76936;DHT22;65881;52.438;16.744;2024-03-17T05:14:35;3.30;99.90
76936;DHT22;65881;52.438;16.744;2024-03-17T05:17:01;3.30;99.90
76936;DHT22;65881;52.438;16.744;2024-03-17T05:19:27;3.30;99.90
76936;DHT22;65881;52.438;16.744;2024-03-17T05:21:52;3.30;99.90
76936;DHT22;65881;52.438;16.744;2024-03-17T05:24:19;3.30;99.90
76936;DHT22;65881;52.438;16.744;2024-03-17T05:26:45;3.30;99.90
76936;DHT22;65881;52.438;16.744;2024-03-17T05:29:11;3.30;99.90
76936;DHT22;65881;52.438;16.744;2024-03-17T05:31:37;3.30;99.90
76936;DHT22;65881;52.438;16.744;2024-03-17T05:34:07;3.40;99.90
76936;DHT22;65881;52.438;16.744;2024-03-17T05:36:33;3.50;99.90
76936;DHT22;65881;52.438;16.744;2024-03-17T05:38:59;3.50;99.90
76936;DHT22;65881;52.438;16.744;2024-03-17T05:41:25;3.60;99.90
76936;DHT22;65881;52.438;16.744;2024-03-17T05:43:51;3.60;99.90
76936;DHT22;65881;52.438;16.744;2024-03-17T05:46:17;3.60;99.90
76936;DHT22;65881;52.438;16.744;2024-03-17T05:48:43;3.60;99.90
76936;DHT22;65881;52.438;16.744;2024-03-17T05:51:11;3.60;99.90
76936;DHT22;65881;52.438;16.744;2024-03-17T05:53:40;3.70;99.90
76936;DHT22;65881;52.438;16.744;2024-03-17T05:56:06;3.80;99.90
76936;DHT22;65881;52.438;16.744;2024-03-17T05:58:34;3.90;99.90
76936;DHT22;65881;52.438;16.744;2024-03-17T06:01:02;3.90;99.90
76936;DHT22;65881;52.438;16.744;2024-03-17T06:03:27;3.90;99.90
76936;DHT22;65881;52.438;16.744;2024-03-17T06:05:53;3.90;99.90
76936;DHT22;65881;52.438;16.744;2024-03-17T06:08:19;3.90;99.90
76936;DHT22;65881;52.438;16.744;2024-03-17T06:10:46;3.90;99.90
76936;DHT22;65881;52.438;16.744;2024-03-17T06:13:12;3.90;99.90
76936;DHT22;65881;52.438;16.744;2024-03-17T06:15:39;4.00;99.90
76936;DHT22;65881;52.438;16.744;2024-03-17T06:18:08;4.00;99.90
76936;DHT22;65881;52.438;16.744;2024-03-17T06:20:40;4.00;99.90
76936;DHT22;65881;52.438;16.744;2024-03-17T06:23:07;4.00;99.90
76936;DHT22;65881;52.438;16.744;2024-03-17T06:25:46;4.10;99.90
76936;DHT22;65881;52.438;16.744;2024-03-17T06:28:13;4.10;99.90
76936;DHT22;65881;52.438;16.744;2024-03-17T06:30:44;4.20;99.90
76936;DHT22;65881;52.438;16.744;2024-03-17T06:33:16;4.30;99.90
76936;DHT22;65881;52.438;16.744;2024-03-17T06:35:44;4.40;99.90
76936;DHT22;65881;52.438;16.744;2024-03-17T06:38:09;4.30;99.90
76936;DHT22;65881;52.438;16.744;2024-03-17T06:40:35;4.30;99.90
76936;DHT22;65881;52.438;16.744;2024-03-17T06:43:01;4.30;99.90
76936;DHT22;65881;52.438;16.744;2024-03-17T06:45:26;4.40;99.90
76936;DHT22;65881;52.438;16.744;2024-03-17T06:47:52;4.50;99.90
76936;DHT22;65881;52.438;16.744;2024-03-17T06:50:17;4.50;99.90
76936;DHT22;65881;52.438;16.744;2024-03-17T06:52:43;4.60;99.90
76936;DHT22;65881;52.438;16.744;2024-03-17T06:55:12;4.60;99.90
76936;DHT22;65881;52.438;16.744;2024-03-17T06:57:46;4.50;99.90
76936;DHT22;65881;52.438;16.744;2024-03-17T07:00:14;4.50;99.90
76936;DHT22;65881;52.438;16.744;2024-03-17T07:02:40;4.50;99.90
76936;DHT22;65881;52.438;16.744;2024-03-17T07:05:15;4.40;99.90
76936;DHT22;65881;52.438;16.744;2024-03-17T07:07:42;4.40;99.90
76936;DHT22;65881;52.438;16.744;2024-03-17T07:10:08;4.20;99.90
76936;DHT22;65881;52.438;16.744;2024-03-17T07:12:34;4.10;99.90
76936;DHT22;65881;52.438;16.744;2024-03-17T07:15:00;4.00;99.90
76936;DHT22;65881;52.438;16.744;2024-03-17T07:17:26;3.90;99.90
76936;DHT22;65881;52.438;16.744;2024-03-17T07:19:52;3.90;99.90
76936;DHT22;65881;52.438;16.744;2024-03-17T07:22:17;3.90;99.90
76936;DHT22;65881;52.438;16.744;2024-03-17T07:24:43;3.90;99.90
76936;DHT22;65881;52.438;16.744;2024-03-17T07:27:10;4.00;99.90
76936;DHT22;65881;52.438;16.744;2024-03-17T07:29:39;4.00;99.90
76936;DHT22;65881;52.438;16.744;2024-03-17T07:32:05;4.00;99.90
76936;DHT22;65881;52.438;16.744;2024-03-17T07:34:33;4.00;99.90
76936;DHT22;65881;52.438;16.744;2024-03-17T07:37:00;4.00;99.90
76936;DHT22;65881;52.438;16.744;2024-03-17T07:39:29;4.10;99.90
76936;DHT22;65881;52.438;16.744;2024-03-17T07:41:58;4.20;99.90
76936;DHT22;65881;52.438;16.744;2024-03-17T07:44:24;4.30;99.90
76936;DHT22;65881;52.438;16.744;2024-03-17T07:46:50;4.40;99.90
76936;DHT22;65881;52.438;16.744;2024-03-17T07:49:16;4.40;99.90
76936;DHT22;65881;52.438;16.744;2024-03-17T07:51:42;4.90;99.90
76936;DHT22;65881;52.438;16.744;2024-03-17T07:54:09;5.10;99.90
76936;DHT22;65881;52.438;16.744;2024-03-17T07:56:34;5.10;99.90
76936;DHT22;65881;52.438;16.744;2024-03-17T07:59:00;5.00;99.90
76936;DHT22;65881;52.438;16.744;2024-03-17T08:01:25;5.00;99.90
76936;DHT22;65881;52.438;16.744;2024-03-17T08:03:52;4.90;99.90
76936;DHT22;65881;52.438;16.744;2024-03-17T08:06:21;4.80;99.90
76936;DHT22;65881;52.438;16.744;2024-03-17T08:08:47;4.90;99.90
76936;DHT22;65881;52.438;16.744;2024-03-17T08:11:13;5.00;99.90
76936;DHT22;65881;52.438;16.744;2024-03-17T08:13:38;5.00;99.90
76936;DHT22;65881;52.438;16.744;2024-03-17T08:16:06;5.10;99.90
76936;DHT22;65881;52.438;16.744;2024-03-17T08:18:35;5.20;99.90
76936;DHT22;65881;52.438;16.744;2024-03-17T08:21:04;5.30;99.90
76936;DHT22;65881;52.438;16.744;2024-03-17T08:23:31;5.50;99.90
76936;DHT22;65881;52.438;16.744;2024-03-17T08:26:00;5.50;99.90
76936;DHT22;65881;52.438;16.744;2024-03-17T08:28:26;5.50;99.90
76936;DHT22;65881;52.438;16.744;2024-03-17T08:30:56;5.50;99.90
76936;DHT22;65881;52.438;16.744;2024-03-17T08:33:22;5.50;99.90
76936;DHT22;65881;52.438;16.744;2024-03-17T08:38:28;5.50;99.90
76936;DHT22;65881;52.438;16.744;2024-03-17T08:40:55;5.70;99.90
76936;DHT22;65881;52.438;16.744;2024-03-17T08:43:21;5.80;99.90
76936;DHT22;65881;52.438;16.744;2024-03-17T08:45:57;5.70;99.90
76936;DHT22;65881;52.438;16.744;2024-03-17T08:48:32;5.50;99.90
76936;DHT22;65881;52.438;16.744;2024-03-17T08:50:58;5.10;99.90
76936;DHT22;65881;52.438;16.744;2024-03-17T08:53:24;4.90;99.90
76936;DHT22;65881;52.438;16.744;2024-03-17T08:55:52;4.80;99.90
76936;DHT22;65881;52.438;16.744;2024-03-17T08:58:18;4.70;99.90
76936;DHT22;65881;52.438;16.744;2024-03-17T09:00:44;4.40;99.90
76936;DHT22;65881;52.438;16.744;2024-03-17T09:03:11;4.10;99.90
76936;DHT22;65881;52.438;16.744;2024-03-17T09:05:38;4.10;99.90
76936;DHT22;65881;52.438;16.744;2024-03-17T09:08:04;4.10;99.90
76936;DHT22;65881;52.438;16.744;2024-03-17T09:10:31;4.20;99.90
76936;DHT22;65881;52.438;16.744;2024-03-17T09:12:56;4.30;99.90
76936;DHT22;65881;52.438;16.744;2024-03-17T09:15:22;4.30;99.90
76936;DHT22;65881;52.438;16.744;2024-03-17T09:17:47;4.50;99.90
76936;DHT22;65881;52.438;16.744;2024-03-17T09:20:13;4.40;99.90
76936;DHT22;65881;52.438;16.744;2024-03-17T09:22:43;4.40;99.90
76936;DHT22;65881;52.438;16.744;2024-03-17T09:25:09;4.50;99.90
76936;DHT22;65881;52.438;16.744;2024-03-17T09:27:35;4.50;99.90
76936;DHT22;65881;52.438;16.744;2024-03-17T09:30:07;4.50;99.90
76936;DHT22;65881;52.438;16.744;2024-03-17T09:32:35;4.40;99.90
76936;DHT22;65881;52.438;16.744;2024-03-17T09:35:01;4.40;99.90
76936;DHT22;65881;52.438;16.744;2024-03-17T09:37:28;4.50;99.90
76936;DHT22;65881;52.438;16.744;2024-03-17T09:39:54;4.60;99.90
76936;DHT22;65881;52.438;16.744;2024-03-17T09:42:22;4.70;99.90
76936;DHT22;65881;52.438;16.744;2024-03-17T09:44:49;4.70;99.90
76936;DHT22;65881;52.438;16.744;2024-03-17T09:47:20;4.70;99.90
76936;DHT22;65881;52.438;16.744;2024-03-17T09:49:50;4.90;99.90
76936;DHT22;65881;52.438;16.744;2024-03-17T09:52:25;4.90;99.90
76936;DHT22;65881;52.438;16.744;2024-03-17T09:54:59;4.90;99.90
76936;DHT22;65881;52.438;16.744;2024-03-17T09:57:26;4.80;99.90
76936;DHT22;65881;52.438;16.744;2024-03-17T09:59:52;4.70;99.90
76936;DHT22;65881;52.438;16.744;2024-03-17T10:02:21;4.80;99.90
76936;DHT22;65881;52.438;16.744;2024-03-17T10:04:48;4.90;99.90
76936;DHT22;65881;52.438;16.744;2024-03-17T10:07:14;4.90;99.90
76936;DHT22;65881;52.438;16.744;2024-03-17T10:09:41;5.00;99.90
76936;DHT22;65881;52.438;16.744;2024-03-17T10:12:28;5.00;99.90
76936;DHT22;65881;52.438;16.744;2024-03-17T10:14:58;5.10;99.90
76936;DHT22;65881;52.438;16.744;2024-03-17T10:17:33;5.10;99.90
76936;DHT22;65881;52.438;16.744;2024-03-17T10:20:18;5.10;99.90
76936;DHT22;65881;52.438;16.744;2024-03-17T10:23:00;5.00;99.90
76936;DHT22;65881;52.438;16.744;2024-03-17T10:25:27;5.00;99.90
76936;DHT22;65881;52.438;16.744;2024-03-17T10:27:56;5.00;99.90
76936;DHT22;65881;52.438;16.744;2024-03-17T10:30:23;5.00;99.90
76936;DHT22;65881;52.438;16.744;2024-03-17T10:32:59;4.90;99.90
76936;DHT22;65881;52.438;16.744;2024-03-17T10:35:36;4.70;99.90
76936;DHT22;65881;52.438;16.744;2024-03-17T10:38:08;4.70;99.90
76936;DHT22;65881;52.438;16.744;2024-03-17T10:40:34;4.80;99.90
76936;DHT22;65881;52.438;16.744;2024-03-17T10:43:03;4.90;99.90
76936;DHT22;65881;52.438;16.744;2024-03-17T10:45:30;4.90;99.90
76936;DHT22;65881;52.438;16.744;2024-03-17T10:48:01;4.90;99.90
76936;DHT22;65881;52.438;16.744;2024-03-17T10:50:30;4.80;99.90
76936;DHT22;65881;52.438;16.744;2024-03-17T10:53:01;4.70;99.90
76936;DHT22;65881;52.438;16.744;2024-03-17T10:55:31;4.80;99.90
76936;DHT22;65881;52.438;16.744;2024-03-17T10:57:59;5.00;99.90
76936;DHT22;65881;52.438;16.744;2024-03-17T11:00:26;5.00;99.90
76936;DHT22;65881;52.438;16.744;2024-03-17T11:02:55;5.00;99.90
76936;DHT22;65881;52.438;16.744;2024-03-17T11:05:26;5.00;99.90
76936;DHT22;65881;52.438;16.744;2024-03-17T11:07:55;5.00;99.90
76936;DHT22;65881;52.438;16.744;2024-03-17T11:10:28;5.10;99.90
76936;DHT22;65881;52.438;16.744;2024-03-17T11:13:03;5.00;99.90
76936;DHT22;65881;52.438;16.744;2024-03-17T11:20:36;4.90;99.90
76936;DHT22;65881;52.438;16.744;2024-03-17T11:23:02;4.90;99.90
76936;DHT22;65881;52.438;16.744;2024-03-17T11:27:59;4.80;99.90
76936;DHT22;65881;52.438;16.744;2024-03-17T11:38:57;4.70;99.90
76936;DHT22;65881;52.438;16.744;2024-03-17T11:41:40;4.60;99.90
76936;DHT22;65881;52.438;16.744;2024-03-17T11:47:04;4.70;99.90
76936;DHT22;65881;52.438;16.744;2024-03-17T11:49:32;4.70;99.90
76936;DHT22;65881;52.438;16.744;2024-03-17T11:52:12;4.90;99.90
76936;DHT22;65881;52.438;16.744;2024-03-17T11:54:43;5.00;99.90
76936;DHT22;65881;52.438;16.744;2024-03-17T11:57:09;5.00;99.90
76936;DHT22;65881;52.438;16.744;2024-03-17T11:59:36;4.90;99.90
76936;DHT22;65881;52.438;16.744;2024-03-17T12:02:34;4.70;99.90
76936;DHT22;65881;52.438;16.744;2024-03-17T12:05:02;4.70;99.90
76936;DHT22;65881;52.438;16.744;2024-03-17T12:07:31;4.70;99.90
76936;DHT22;65881;52.438;16.744;2024-03-17T12:09:56;4.80;99.90
76936;DHT22;65881;52.438;16.744;2024-03-17T12:12:23;4.70;99.90
76936;DHT22;65881;52.438;16.744;2024-03-17T12:14:50;4.60;99.90
76936;DHT22;65881;52.438;16.744;2024-03-17T12:17:23;4.50;99.90
76936;DHT22;65881;52.438;16.744;2024-03-17T12:19:51;4.50;99.90
76936;DHT22;65881;52.438;16.744;2024-03-17T12:22:20;4.40;99.90
76936;DHT22;65881;52.438;16.744;2024-03-17T12:24:55;4.40;99.90
76936;DHT22;65881;52.438;16.744;2024-03-17T12:27:22;4.30;99.90
76936;DHT22;65881;52.438;16.744;2024-03-17T12:29:49;4.30;99.90
76936;DHT22;65881;52.438;16.744;2024-03-17T12:32:25;4.20;99.90
76936;DHT22;65881;52.438;16.744;2024-03-17T12:34:55;4.20;99.90
76936;DHT22;65881;52.438;16.744;2024-03-17T12:37:23;4.00;99.90
76936;DHT22;65881;52.438;16.744;2024-03-17T12:39:52;3.80;99.90
76936;DHT22;65881;52.438;16.744;2024-03-17T12:42:23;3.70;99.90
76936;DHT22;65881;52.438;16.744;2024-03-17T12:44:57;3.60;99.90
76936;DHT22;65881;52.438;16.744;2024-03-17T12:47:30;3.70;99.90
76936;DHT22;65881;52.438;16.744;2024-03-17T12:52:25;3.90;99.90
76936;DHT22;65881;52.438;16.744;2024-03-17T12:55:07;3.90;99.90
76936;DHT22;65881;52.438;16.744;2024-03-17T12:58:06;3.90;99.90
76936;DHT22;65881;52.438;16.744;2024-03-17T13:01:17;4.00;99.90
76936;DHT22;65881;52.438;16.744;2024-03-17T13:03:45;4.30;99.90
76936;DHT22;65881;52.438;16.744;2024-03-17T13:06:24;4.40;99.90
76936;DHT22;65881;52.438;16.744;2024-03-17T13:08:50;4.40;99.90
76936;DHT22;65881;52.438;16.744;2024-03-17T13:11:16;4.20;99.90
76936;DHT22;65881;52.438;16.744;2024-03-17T13:13:41;4.10;99.90
76936;DHT22;65881;52.438;16.744;2024-03-17T13:16:08;3.90;99.90
76936;DHT22;65881;52.438;16.744;2024-03-17T13:18:35;3.70;99.90
76936;DHT22;65881;52.438;16.744;2024-03-17T13:21:00;3.80;99.90
76936;DHT22;65881;52.438;16.744;2024-03-17T13:23:26;3.90;99.90
76936;DHT22;65881;52.438;16.744;2024-03-17T13:25:52;3.90;99.90
76936;DHT22;65881;52.438;16.744;2024-03-17T13:28:17;3.90;99.90
76936;DHT22;65881;52.438;16.744;2024-03-17T13:30:43;3.90;99.90
76936;DHT22;65881;52.438;16.744;2024-03-17T13:33:10;3.90;99.90
76936;DHT22;65881;52.438;16.744;2024-03-17T13:35:37;3.90;99.90
76936;DHT22;65881;52.438;16.744;2024-03-17T13:38:05;3.90;99.90
76936;DHT22;65881;52.438;16.744;2024-03-17T13:40:32;3.90;99.90
76936;DHT22;65881;52.438;16.744;2024-03-17T13:42:58;4.00;99.90
76936;DHT22;65881;52.438;16.744;2024-03-17T13:45:29;4.00;99.90
76936;DHT22;65881;52.438;16.744;2024-03-17T13:47:58;3.90;99.90
76936;DHT22;65881;52.438;16.744;2024-03-17T13:50:25;3.90;99.90
76936;DHT22;65881;52.438;16.744;2024-03-17T13:52:51;3.90;99.90
76936;DHT22;65881;52.438;16.744;2024-03-17T13:55:18;4.00;99.90
76936;DHT22;65881;52.438;16.744;2024-03-17T13:57:50;4.10;99.90
76936;DHT22;65881;52.438;16.744;2024-03-17T14:00:24;4.10;99.90
76936;DHT22;65881;52.438;16.744;2024-03-17T14:02:52;4.20;99.90
76936;DHT22;65881;52.438;16.744;2024-03-17T14:05:23;4.20;99.90
76936;DHT22;65881;52.438;16.744;2024-03-17T14:07:49;4.00;99.90
76936;DHT22;65881;52.438;16.744;2024-03-17T14:10:16;3.90;99.90
76936;DHT22;65881;52.438;16.744;2024-03-17T14:12:42;3.70;99.90
76936;DHT22;65881;52.438;16.744;2024-03-17T14:15:09;3.60;99.90
76936;DHT22;65881;52.438;16.744;2024-03-17T14:17:42;3.60;99.90
76936;DHT22;65881;52.438;16.744;2024-03-17T14:20:09;3.50;99.90
76936;DHT22;65881;52.438;16.744;2024-03-17T14:22:38;3.50;99.90
76936;DHT22;65881;52.438;16.744;2024-03-17T14:25:08;3.50;99.90
76936;DHT22;65881;52.438;16.744;2024-03-17T14:27:35;3.50;99.90
76936;DHT22;65881;52.438;16.744;2024-03-17T14:30:01;3.60;99.90
76936;DHT22;65881;52.438;16.744;2024-03-17T14:32:26;3.50;99.90
76936;DHT22;65881;52.438;16.744;2024-03-17T14:34:53;3.60;99.90
76936;DHT22;65881;52.438;16.744;2024-03-17T14:37:18;3.70;99.90
76936;DHT22;65881;52.438;16.744;2024-03-17T14:39:44;3.60;99.90
76936;DHT22;65881;52.438;16.744;2024-03-17T14:42:10;3.40;99.90
76936;DHT22;65881;52.438;16.744;2024-03-17T14:44:36;3.50;99.90
76936;DHT22;65881;52.438;16.744;2024-03-17T14:47:02;3.50;99.90
76936;DHT22;65881;52.438;16.744;2024-03-17T14:49:30;3.50;99.90
76936;DHT22;65881;52.438;16.744;2024-03-17T14:51:55;3.60;99.90
76936;DHT22;65881;52.438;16.744;2024-03-17T14:54:24;3.70;99.90
76936;DHT22;65881;52.438;16.744;2024-03-17T14:56:49;3.70;99.90
76936;DHT22;65881;52.438;16.744;2024-03-17T14:59:15;3.70;99.90
76936;DHT22;65881;52.438;16.744;2024-03-17T15:01:46;3.70;99.90
76936;DHT22;65881;52.438;16.744;2024-03-17T15:04:12;3.70;99.90
76936;DHT22;65881;52.438;16.744;2024-03-17T15:06:38;3.70;99.90
76936;DHT22;65881;52.438;16.744;2024-03-17T15:09:04;3.60;99.90
76936;DHT22;65881;52.438;16.744;2024-03-17T15:11:31;3.60;99.90
76936;DHT22;65881;52.438;16.744;2024-03-17T15:13:56;3.50;99.90
76936;DHT22;65881;52.438;16.744;2024-03-17T15:16:22;3.30;99.90
76936;DHT22;65881;52.438;16.744;2024-03-17T15:18:48;3.30;99.90
76936;DHT22;65881;52.438;16.744;2024-03-17T15:21:14;3.40;99.90
76936;DHT22;65881;52.438;16.744;2024-03-17T15:23:40;3.30;99.90
76936;DHT22;65881;52.438;16.744;2024-03-17T15:26:06;3.30;99.90
76936;DHT22;65881;52.438;16.744;2024-03-17T15:28:36;3.30;99.90
76936;DHT22;65881;52.438;16.744;2024-03-17T15:31:03;3.30;99.90
76936;DHT22;65881;52.438;16.744;2024-03-17T15:33:29;3.30;99.90
76936;DHT22;65881;52.438;16.744;2024-03-17T15:35:55;3.40;99.90
76936;DHT22;65881;52.438;16.744;2024-03-17T15:38:20;3.30;99.90
76936;DHT22;65881;52.438;16.744;2024-03-17T15:40:47;3.40;99.90
76936;DHT22;65881;52.438;16.744;2024-03-17T15:43:13;3.40;99.90
76936;DHT22;65881;52.438;16.744;2024-03-17T15:45:39;3.40;99.90
76936;DHT22;65881;52.438;16.744;2024-03-17T15:48:05;3.30;99.90
76936;DHT22;65881;52.438;16.744;2024-03-17T15:50:31;3.30;99.90
76936;DHT22;65881;52.438;16.744;2024-03-17T15:52:56;3.30;99.90
76936;DHT22;65881;52.438;16.744;2024-03-17T15:55:22;3.30;99.90
76936;DHT22;65881;52.438;16.744;2024-03-17T15:57:50;3.20;99.90